sensor_id;sensor_type;location;lat;lon;timestamp;P1;durP1;ratioP1;P2;durP2;ratioP2
76867;SDS011;66168;45.478;11.060;2023-02-19T00:01:24;100.60;;;47.80;;
76867;SDS011;66168;45.478;11.060;2023-02-19T00:03:55;99.50;;;46.90;;
76867;SDS011;66168;45.478;11.060;2023-02-19T00:06:25;103.30;;;48.30;;
76867;SDS011;66168;45.478;11.060;2023-02-19T00:08:53;105.10;;;49.20;;
76867;SDS011;66168;45.478;11.060;2023-02-19T00:11:22;103.70;;;49.40;;
76867;SDS011;66168;45.478;11.060;2023-02-19T00:13:51;99.50;;;47.30;;
76867;SDS011;66168;45.478;11.060;2023-02-19T00:16:20;96.70;;;46.50;;
76867;SDS011;66168;45.478;11.060;2023-02-19T00:18:49;100.60;;;46.30;;
76867;SDS011;66168;45.478;11.060;2023-02-19T00:21:17;95.60;;;46.30;;
76867;SDS011;66168;45.478;11.060;2023-02-19T00:23:55;96.40;;;46.10;;
76867;SDS011;66168;45.478;11.060;2023-02-19T00:26:23;92.40;;;44.50;;
76867;SDS011;66168;45.478;11.060;2023-02-19T00:28:52;95.60;;;44.70;;
76867;SDS011;66168;45.478;11.060;2023-02-19T00:31:22;92.90;;;44.60;;
76867;SDS011;66168;45.478;11.060;2023-02-19T00:33:51;99.40;;;46.90;;
76867;SDS011;66168;45.478;11.060;2023-02-19T00:36:21;101.60;;;47.40;;
76867;SDS011;66168;45.478;11.060;2023-02-19T00:38:48;99.00;;;47.60;;
76867;SDS011;66168;45.478;11.060;2023-02-19T00:41:17;92.90;;;45.70;;
76867;SDS011;66168;45.478;11.060;2023-02-19T00:43:46;95.30;;;47.00;;
76867;SDS011;66168;45.478;11.060;2023-02-19T00:46:40;99.10;;;46.00;;
76867;SDS011;66168;45.478;11.060;2023-02-19T00:49:10;97.80;;;47.90;;
76867;SDS011;66168;45.478;11.060;2023-02-19T00:51:49;96.40;;;45.70;;
76867;SDS011;66168;45.478;11.060;2023-02-19T00:54:18;95.50;;;45.30;;
76867;SDS011;66168;45.478;11.060;2023-02-19T00:56:47;99.40;;;48.70;;
76867;SDS011;66168;45.478;11.060;2023-02-19T00:59:14;98.90;;;46.70;;
76867;SDS011;66168;45.478;11.060;2023-02-19T01:01:42;99.90;;;47.30;;
76867;SDS011;66168;45.478;11.060;2023-02-19T01:04:10;97.10;;;47.50;;
76867;SDS011;66168;45.478;11.060;2023-02-19T01:06:37;98.30;;;45.90;;
76867;SDS011;66168;45.478;11.060;2023-02-19T01:09:04;96.40;;;46.80;;
76867;SDS011;66168;45.478;11.060;2023-02-19T01:11:32;102.50;;;47.20;;
76867;SDS011;66168;45.478;11.060;2023-02-19T01:13:59;94.00;;;45.40;;
76867;SDS011;66168;45.478;11.060;2023-02-19T01:16:27;99.20;;;47.00;;
76867;SDS011;66168;45.478;11.060;2023-02-19T01:18:55;103.60;;;48.30;;
76867;SDS011;66168;45.478;11.060;2023-02-19T01:21:23;107.50;;;49.50;;
76867;SDS011;66168;45.478;11.060;2023-02-19T01:23:52;91.00;;;44.30;;
76867;SDS011;66168;45.478;11.060;2023-02-19T01:26:20;95.20;;;45.00;;
76867;SDS011;66168;45.478;11.060;2023-02-19T01:28:48;95.70;;;46.90;;
76867;SDS011;66168;45.478;11.060;2023-02-19T01:31:17;93.80;;;46.20;;
76867;SDS011;66168;45.478;11.060;2023-02-19T01:33:47;92.40;;;44.70;;
76867;SDS011;66168;45.478;11.060;2023-02-19T01:36:15;98.30;;;45.30;;
76867;SDS011;66168;45.478;11.060;2023-02-19T01:38:43;92.80;;;44.00;;
76867;SDS011;66168;45.478;11.060;2023-02-19T01:41:11;104.60;;;48.50;;
76867;SDS011;66168;45.478;11.060;2023-02-19T01:46:26;103.40;;;50.40;;
76867;SDS011;66168;45.478;11.060;2023-02-19T01:48:59;101.50;;;47.80;;
76867;SDS011;66168;45.478;11.060;2023-02-19T01:51:35;94.00;;;46.50;;
76867;SDS011;66168;45.478;11.060;2023-02-19T01:54:05;100.00;;;47.70;;
76867;SDS011;66168;45.478;11.060;2023-02-19T01:56:35;98.50;;;46.40;;
76867;SDS011;66168;45.478;11.060;2023-02-19T01:59:05;101.90;;;46.50;;
76867;SDS011;66168;45.478;11.060;2023-02-19T02:01:37;87.20;;;44.40;;
76867;SDS011;66168;45.478;11.060;2023-02-19T02:04:05;99.60;;;47.40;;
76867;SDS011;66168;45.478;11.060;2023-02-19T02:06:47;89.60;;;43.90;;
76867;SDS011;66168;45.478;11.060;2023-02-19T02:09:20;99.70;;;45.40;;
76867;SDS011;66168;45.478;11.060;2023-02-19T02:12:08;95.50;;;47.50;;
76867;SDS011;66168;45.478;11.060;2023-02-19T02:14:37;89.10;;;43.40;;
76867;SDS011;66168;45.478;11.060;2023-02-19T02:22:45;96.20;;;44.70;;
76867;SDS011;66168;45.478;11.060;2023-02-19T02:28:11;88.70;;;43.20;;
76867;SDS011;66168;45.478;11.060;2023-02-19T02:30:51;99.90;;;46.40;;
76867;SDS011;66168;45.478;11.060;2023-02-19T02:38:36;94.80;;;48.80;;
76867;SDS011;66168;45.478;11.060;2023-02-19T02:41:06;86.50;;;41.20;;
76867;SDS011;66168;45.478;11.060;2023-02-19T02:43:35;95.20;;;44.80;;
76867;SDS011;66168;45.478;11.060;2023-02-19T02:46:02;93.20;;;44.40;;
76867;SDS011;66168;45.478;11.060;2023-02-19T02:51:23;94.20;;;45.50;;
76867;SDS011;66168;45.478;11.060;2023-02-19T02:54:02;82.20;;;41.80;;
76867;SDS011;66168;45.478;11.060;2023-02-19T02:56:49;107.70;;;49.10;;
76867;SDS011;66168;45.478;11.060;2023-02-19T02:59:21;105.30;;;51.00;;
76867;SDS011;66168;45.478;11.060;2023-02-19T03:02:04;103.60;;;48.10;;
76867;SDS011;66168;45.478;11.060;2023-02-19T03:10:24;99.00;;;45.60;;
76867;SDS011;66168;45.478;11.060;2023-02-19T03:12:56;95.70;;;45.40;;
76867;SDS011;66168;45.478;11.060;2023-02-19T03:15:46;108.40;;;49.30;;
76867;SDS011;66168;45.478;11.060;2023-02-19T03:18:37;110.30;;;51.00;;
76867;SDS011;66168;45.478;11.060;2023-02-19T03:21:25;98.80;;;46.70;;
76867;SDS011;66168;45.478;11.060;2023-02-19T03:23:54;97.30;;;46.70;;
76867;SDS011;66168;45.478;11.060;2023-02-19T03:26:42;92.20;;;47.10;;
76867;SDS011;66168;45.478;11.060;2023-02-19T03:29:12;100.00;;;50.40;;
76867;SDS011;66168;45.478;11.060;2023-02-19T03:31:50;98.00;;;46.40;;
76867;SDS011;66168;45.478;11.060;2023-02-19T03:34:22;100.60;;;46.20;;
76867;SDS011;66168;45.478;11.060;2023-02-19T03:37:01;90.30;;;45.30;;
76867;SDS011;66168;45.478;11.060;2023-02-19T03:39:44;111.10;;;50.20;;
76867;SDS011;66168;45.478;11.060;2023-02-19T03:48:03;102.00;;;46.60;;
76867;SDS011;66168;45.478;11.060;2023-02-19T03:50:54;97.40;;;46.60;;
76867;SDS011;66168;45.478;11.060;2023-02-19T03:53:30;95.50;;;43.90;;
76867;SDS011;66168;45.478;11.060;2023-02-19T03:56:38;94.00;;;45.60;;
76867;SDS011;66168;45.478;11.060;2023-02-19T03:59:23;99.60;;;45.80;;
76867;SDS011;66168;45.478;11.060;2023-02-19T04:02:05;99.50;;;46.80;;
76867;SDS011;66168;45.478;11.060;2023-02-19T04:04:38;101.80;;;47.10;;
76867;SDS011;66168;45.478;11.060;2023-02-19T04:07:12;94.30;;;43.70;;
76867;SDS011;66168;45.478;11.060;2023-02-19T04:09:40;93.90;;;42.90;;
76867;SDS011;66168;45.478;11.060;2023-02-19T04:12:13;94.10;;;44.00;;
76867;SDS011;66168;45.478;11.060;2023-02-19T04:14:44;88.50;;;44.50;;
76867;SDS011;66168;45.478;11.060;2023-02-19T04:17:25;93.90;;;46.20;;
76867;SDS011;66168;45.478;11.060;2023-02-19T04:19:56;93.80;;;44.40;;
76867;SDS011;66168;45.478;11.060;2023-02-19T04:22:26;86.50;;;41.90;;
76867;SDS011;66168;45.478;11.060;2023-02-19T04:24:54;93.30;;;44.50;;
76867;SDS011;66168;45.478;11.060;2023-02-19T04:27:22;102.30;;;48.10;;
76867;SDS011;66168;45.478;11.060;2023-02-19T04:29:51;87.00;;;43.80;;
76867;SDS011;66168;45.478;11.060;2023-02-19T04:32:18;93.70;;;44.00;;
76867;SDS011;66168;45.478;11.060;2023-02-19T04:34:45;93.80;;;43.00;;
76867;SDS011;66168;45.478;11.060;2023-02-19T04:37:12;100.40;;;46.20;;
76867;SDS011;66168;45.478;11.060;2023-02-19T04:39:38;96.60;;;46.70;;
76867;SDS011;66168;45.478;11.060;2023-02-19T04:42:05;95.70;;;43.60;;
76867;SDS011;66168;45.478;11.060;2023-02-19T04:44:32;98.70;;;47.00;;
76867;SDS011;66168;45.478;11.060;2023-02-19T04:46:59;115.20;;;51.40;;
76867;SDS011;66168;45.478;11.060;2023-02-19T04:49:26;110.60;;;51.70;;
76867;SDS011;66168;45.478;11.060;2023-02-19T04:51:53;110.40;;;50.00;;
76867;SDS011;66168;45.478;11.060;2023-02-19T04:54:19;110.20;;;52.00;;
76867;SDS011;66168;45.478;11.060;2023-02-19T04:56:46;102.80;;;51.20;;
76867;SDS011;66168;45.478;11.060;2023-02-19T04:59:13;102.60;;;50.00;;
76867;SDS011;66168;45.478;11.060;2023-02-19T05:01:39;107.70;;;52.90;;
76867;SDS011;66168;45.478;11.060;2023-02-19T05:04:06;103.40;;;50.20;;
76867;SDS011;66168;45.478;11.060;2023-02-19T05:06:33;113.50;;;53.00;;
76867;SDS011;66168;45.478;11.060;2023-02-19T05:08:59;115.70;;;52.80;;
76867;SDS011;66168;45.478;11.060;2023-02-19T05:11:26;115.00;;;55.80;;
76867;SDS011;66168;45.478;11.060;2023-02-19T05:13:53;114.80;;;52.40;;
76867;SDS011;66168;45.478;11.060;2023-02-19T05:16:21;111.90;;;50.40;;
76867;SDS011;66168;45.478;11.060;2023-02-19T05:18:48;105.00;;;49.70;;
76867;SDS011;66168;45.478;11.060;2023-02-19T05:21:15;118.40;;;53.20;;
76867;SDS011;66168;45.478;11.060;2023-02-19T05:23:42;108.90;;;54.90;;
76867;SDS011;66168;45.478;11.060;2023-02-19T05:26:13;113.10;;;54.90;;
76867;SDS011;66168;45.478;11.060;2023-02-19T05:28:45;120.80;;;57.60;;
76867;SDS011;66168;45.478;11.060;2023-02-19T05:31:13;123.40;;;59.80;;
76867;SDS011;66168;45.478;11.060;2023-02-19T05:33:41;122.20;;;54.90;;
76867;SDS011;66168;45.478;11.060;2023-02-19T05:36:11;119.90;;;56.40;;
76867;SDS011;66168;45.478;11.060;2023-02-19T05:38:40;103.40;;;49.20;;
76867;SDS011;66168;45.478;11.060;2023-02-19T05:43:36;113.40;;;53.40;;
76867;SDS011;66168;45.478;11.060;2023-02-19T05:46:04;112.80;;;53.10;;
76867;SDS011;66168;45.478;11.060;2023-02-19T05:48:31;117.10;;;52.50;;
76867;SDS011;66168;45.478;11.060;2023-02-19T05:51:02;121.60;;;56.50;;
76867;SDS011;66168;45.478;11.060;2023-02-19T05:53:34;110.90;;;52.80;;
76867;SDS011;66168;45.478;11.060;2023-02-19T05:56:01;112.30;;;53.10;;
76867;SDS011;66168;45.478;11.060;2023-02-19T05:58:28;107.90;;;52.50;;
76867;SDS011;66168;45.478;11.060;2023-02-19T06:00:54;112.30;;;51.40;;
76867;SDS011;66168;45.478;11.060;2023-02-19T06:03:22;108.60;;;50.10;;
76867;SDS011;66168;45.478;11.060;2023-02-19T06:05:49;100.70;;;49.10;;
76867;SDS011;66168;45.478;11.060;2023-02-19T06:08:16;102.50;;;49.10;;
76867;SDS011;66168;45.478;11.060;2023-02-19T06:10:42;110.40;;;51.30;;
76867;SDS011;66168;45.478;11.060;2023-02-19T06:13:09;118.20;;;56.50;;
76867;SDS011;66168;45.478;11.060;2023-02-19T06:15:36;117.40;;;58.80;;
76867;SDS011;66168;45.478;11.060;2023-02-19T06:18:03;108.50;;;52.10;;
76867;SDS011;66168;45.478;11.060;2023-02-19T06:20:30;108.80;;;49.70;;
76867;SDS011;66168;45.478;11.060;2023-02-19T06:22:58;107.30;;;51.10;;
76867;SDS011;66168;45.478;11.060;2023-02-19T06:25:25;95.70;;;48.00;;
76867;SDS011;66168;45.478;11.060;2023-02-19T06:27:51;87.50;;;40.70;;
76867;SDS011;66168;45.478;11.060;2023-02-19T06:30:18;103.70;;;50.90;;
76867;SDS011;66168;45.478;11.060;2023-02-19T06:32:45;96.90;;;46.10;;
76867;SDS011;66168;45.478;11.060;2023-02-19T06:35:12;115.10;;;53.20;;
76867;SDS011;66168;45.478;11.060;2023-02-19T06:37:38;108.40;;;49.70;;
76867;SDS011;66168;45.478;11.060;2023-02-19T06:40:05;94.80;;;45.80;;
76867;SDS011;66168;45.478;11.060;2023-02-19T06:42:32;107.10;;;51.00;;
76867;SDS011;66168;45.478;11.060;2023-02-19T06:44:59;110.70;;;51.40;;
76867;SDS011;66168;45.478;11.060;2023-02-19T06:47:29;107.00;;;50.20;;
76867;SDS011;66168;45.478;11.060;2023-02-19T06:49:57;96.30;;;47.40;;
76867;SDS011;66168;45.478;11.060;2023-02-19T06:52:25;102.80;;;48.90;;
76867;SDS011;66168;45.478;11.060;2023-02-19T06:54:52;108.00;;;49.60;;
76867;SDS011;66168;45.478;11.060;2023-02-19T06:57:19;115.60;;;51.50;;
76867;SDS011;66168;45.478;11.060;2023-02-19T06:59:45;112.50;;;52.70;;
76867;SDS011;66168;45.478;11.060;2023-02-19T07:02:12;113.50;;;53.40;;
76867;SDS011;66168;45.478;11.060;2023-02-19T07:04:39;107.40;;;55.40;;
76867;SDS011;66168;45.478;11.060;2023-02-19T07:07:06;111.60;;;54.00;;
76867;SDS011;66168;45.478;11.060;2023-02-19T07:09:36;103.30;;;51.20;;
76867;SDS011;66168;45.478;11.060;2023-02-19T07:12:03;107.40;;;51.00;;
76867;SDS011;66168;45.478;11.060;2023-02-19T07:14:30;113.30;;;51.20;;
76867;SDS011;66168;45.478;11.060;2023-02-19T07:16:57;113.70;;;51.40;;
76867;SDS011;66168;45.478;11.060;2023-02-19T07:19:23;115.50;;;53.10;;
76867;SDS011;66168;45.478;11.060;2023-02-19T07:21:50;123.90;;;55.00;;
76867;SDS011;66168;45.478;11.060;2023-02-19T07:24:17;113.60;;;54.00;;
76867;SDS011;66168;45.478;11.060;2023-02-19T07:26:44;116.00;;;54.10;;
76867;SDS011;66168;45.478;11.060;2023-02-19T07:29:11;116.30;;;54.50;;
76867;SDS011;66168;45.478;11.060;2023-02-19T07:31:37;116.40;;;54.80;;
76867;SDS011;66168;45.478;11.060;2023-02-19T07:34:05;114.40;;;53.60;;
76867;SDS011;66168;45.478;11.060;2023-02-19T07:36:32;105.00;;;52.00;;
76867;SDS011;66168;45.478;11.060;2023-02-19T07:38:59;119.30;;;56.80;;
76867;SDS011;66168;45.478;11.060;2023-02-19T07:41:26;124.50;;;58.10;;
76867;SDS011;66168;45.478;11.060;2023-02-19T07:43:55;131.10;;;59.80;;
76867;SDS011;66168;45.478;11.060;2023-02-19T07:46:21;111.30;;;53.90;;
76867;SDS011;66168;45.478;11.060;2023-02-19T07:48:48;112.10;;;56.00;;
76867;SDS011;66168;45.478;11.060;2023-02-19T07:51:16;115.60;;;55.00;;
76867;SDS011;66168;45.478;11.060;2023-02-19T07:53:45;115.80;;;56.30;;
76867;SDS011;66168;45.478;11.060;2023-02-19T07:56:12;111.10;;;55.30;;
76867;SDS011;66168;45.478;11.060;2023-02-19T07:58:39;111.90;;;54.20;;
76867;SDS011;66168;45.478;11.060;2023-02-19T08:01:17;118.10;;;56.80;;
76867;SDS011;66168;45.478;11.060;2023-02-19T08:04:07;127.00;;;57.10;;
76867;SDS011;66168;45.478;11.060;2023-02-19T08:06:34;109.30;;;56.00;;
76867;SDS011;66168;45.478;11.060;2023-02-19T08:09:01;113.70;;;56.10;;
76867;SDS011;66168;45.478;11.060;2023-02-19T08:11:29;120.10;;;56.00;;
76867;SDS011;66168;45.478;11.060;2023-02-19T08:14:14;124.30;;;58.80;;
76867;SDS011;66168;45.478;11.060;2023-02-19T08:16:50;122.30;;;56.20;;
76867;SDS011;66168;45.478;11.060;2023-02-19T08:19:18;118.40;;;57.60;;
76867;SDS011;66168;45.478;11.060;2023-02-19T08:21:45;121.30;;;57.70;;
76867;SDS011;66168;45.478;11.060;2023-02-19T08:24:12;124.40;;;56.80;;
76867;SDS011;66168;45.478;11.060;2023-02-19T08:26:38;126.70;;;60.80;;
76867;SDS011;66168;45.478;11.060;2023-02-19T08:29:05;117.60;;;57.10;;
76867;SDS011;66168;45.478;11.060;2023-02-19T08:31:33;125.30;;;60.70;;
76867;SDS011;66168;45.478;11.060;2023-02-19T08:34:00;122.90;;;58.10;;
76867;SDS011;66168;45.478;11.060;2023-02-19T08:36:27;119.20;;;56.50;;
76867;SDS011;66168;45.478;11.060;2023-02-19T08:38:54;122.80;;;58.40;;
76867;SDS011;66168;45.478;11.060;2023-02-19T08:41:21;107.50;;;51.40;;
76867;SDS011;66168;45.478;11.060;2023-02-19T08:43:47;110.00;;;54.60;;
76867;SDS011;66168;45.478;11.060;2023-02-19T08:46:14;109.20;;;50.80;;
76867;SDS011;66168;45.478;11.060;2023-02-19T08:48:41;117.50;;;54.20;;
76867;SDS011;66168;45.478;11.060;2023-02-19T08:51:08;114.50;;;53.80;;
76867;SDS011;66168;45.478;11.060;2023-02-19T08:53:37;120.30;;;57.50;;
76867;SDS011;66168;45.478;11.060;2023-02-19T08:56:10;105.30;;;50.00;;
76867;SDS011;66168;45.478;11.060;2023-02-19T08:58:38;103.10;;;50.70;;
76867;SDS011;66168;45.478;11.060;2023-02-19T09:01:12;111.00;;;53.20;;
76867;SDS011;66168;45.478;11.060;2023-02-19T09:03:41;112.90;;;52.50;;
76867;SDS011;66168;45.478;11.060;2023-02-19T09:06:15;113.30;;;51.80;;
76867;SDS011;66168;45.478;11.060;2023-02-19T09:08:44;124.40;;;57.10;;
76867;SDS011;66168;45.478;11.060;2023-02-19T09:11:11;123.40;;;59.50;;
76867;SDS011;66168;45.478;11.060;2023-02-19T09:13:39;121.20;;;55.60;;
76867;SDS011;66168;45.478;11.060;2023-02-19T09:16:06;114.10;;;55.70;;
76867;SDS011;66168;45.478;11.060;2023-02-19T09:18:33;100.20;;;46.70;;
76867;SDS011;66168;45.478;11.060;2023-02-19T09:21:01;108.70;;;51.70;;
76867;SDS011;66168;45.478;11.060;2023-02-19T09:23:33;112.20;;;53.40;;
76867;SDS011;66168;45.478;11.060;2023-02-19T09:26:02;117.00;;;56.80;;
76867;SDS011;66168;45.478;11.060;2023-02-19T09:28:32;123.00;;;58.90;;
76867;SDS011;66168;45.478;11.060;2023-02-19T09:31:03;115.70;;;52.80;;
76867;SDS011;66168;45.478;11.060;2023-02-19T09:33:31;108.40;;;51.30;;
76867;SDS011;66168;45.478;11.060;2023-02-19T09:35:58;115.20;;;56.90;;
76867;SDS011;66168;45.478;11.060;2023-02-19T09:38:28;111.10;;;53.40;;
76867;SDS011;66168;45.478;11.060;2023-02-19T09:40:56;117.00;;;56.70;;
76867;SDS011;66168;45.478;11.060;2023-02-19T09:43:25;99.10;;;49.80;;
76867;SDS011;66168;45.478;11.060;2023-02-19T09:45:59;121.80;;;57.20;;
76867;SDS011;66168;45.478;11.060;2023-02-19T09:48:29;106.20;;;53.80;;
76867;SDS011;66168;45.478;11.060;2023-02-19T09:50:57;107.50;;;50.10;;
76867;SDS011;66168;45.478;11.060;2023-02-19T09:53:26;58.70;;;29.60;;
76867;SDS011;66168;45.478;11.060;2023-02-19T09:56:00;76.20;;;37.70;;
76867;SDS011;66168;45.478;11.060;2023-02-19T09:58:29;91.80;;;42.60;;
76867;SDS011;66168;45.478;11.060;2023-02-19T10:01:02;88.90;;;44.30;;
76867;SDS011;66168;45.478;11.060;2023-02-19T10:03:32;95.20;;;45.50;;
76867;SDS011;66168;45.478;11.060;2023-02-19T10:06:04;52.90;;;24.60;;
76867;SDS011;66168;45.478;11.060;2023-02-19T10:08:38;66.50;;;34.80;;
76867;SDS011;66168;45.478;11.060;2023-02-19T10:11:05;73.90;;;35.80;;
76867;SDS011;66168;45.478;11.060;2023-02-19T10:16:08;91.30;;;44.90;;
76867;SDS011;66168;45.478;11.060;2023-02-19T10:18:43;100.40;;;49.30;;
76867;SDS011;66168;45.478;11.060;2023-02-19T10:21:13;97.60;;;44.50;;
76867;SDS011;66168;45.478;11.060;2023-02-19T10:23:45;81.90;;;39.80;;
76867;SDS011;66168;45.478;11.060;2023-02-19T10:26:19;99.30;;;49.90;;
76867;SDS011;66168;45.478;11.060;2023-02-19T10:28:45;96.10;;;45.20;;
76867;SDS011;66168;45.478;11.060;2023-02-19T10:31:19;72.70;;;33.70;;
76867;SDS011;66168;45.478;11.060;2023-02-19T10:33:49;80.00;;;40.80;;
76867;SDS011;66168;45.478;11.060;2023-02-19T10:36:24;93.90;;;41.50;;
76867;SDS011;66168;45.478;11.060;2023-02-19T10:39:03;67.50;;;33.30;;
76867;SDS011;66168;45.478;11.060;2023-02-19T10:41:51;117.60;;;58.20;;
76867;SDS011;66168;45.478;11.060;2023-02-19T10:44:25;75.40;;;36.30;;
76867;SDS011;66168;45.478;11.060;2023-02-19T10:46:55;97.30;;;45.30;;
76867;SDS011;66168;45.478;11.060;2023-02-19T10:52:09;72.00;;;35.50;;
76867;SDS011;66168;45.478;11.060;2023-02-19T10:54:43;88.00;;;42.80;;
76867;SDS011;66168;45.478;11.060;2023-02-19T11:02:18;94.10;;;44.50;;
76867;SDS011;66168;45.478;11.060;2023-02-19T11:07:47;94.70;;;45.60;;
76867;SDS011;66168;45.478;11.060;2023-02-19T11:12:52;95.20;;;44.10;;
76867;SDS011;66168;45.478;11.060;2023-02-19T11:20:49;113.10;;;52.40;;
76867;SDS011;66168;45.478;11.060;2023-02-19T11:23:24;102.10;;;50.30;;
76867;SDS011;66168;45.478;11.060;2023-02-19T11:25:55;94.50;;;46.00;;
76867;SDS011;66168;45.478;11.060;2023-02-19T11:28:40;103.50;;;50.10;;
76867;SDS011;66168;45.478;11.060;2023-02-19T11:31:12;88.70;;;37.30;;
76867;SDS011;66168;45.478;11.060;2023-02-19T11:36:39;105.30;;;52.50;;
76867;SDS011;66168;45.478;11.060;2023-02-19T11:41:53;68.10;;;32.10;;
76867;SDS011;66168;45.478;11.060;2023-02-19T11:55:06;96.80;;;48.00;;
76867;SDS011;66168;45.478;11.060;2023-02-19T11:57:45;77.10;;;38.90;;
76867;SDS011;66168;45.478;11.060;2023-02-19T12:11:43;88.60;;;43.10;;
76867;SDS011;66168;45.478;11.060;2023-02-19T12:22:25;98.10;;;47.00;;
76867;SDS011;66168;45.478;11.060;2023-02-19T12:27:48;87.70;;;43.40;;
76867;SDS011;66168;45.478;11.060;2023-02-19T12:33:19;89.30;;;43.60;;
76867;SDS011;66168;45.478;11.060;2023-02-19T12:42:18;100.00;;;48.90;;
76867;SDS011;66168;45.478;11.060;2023-02-19T12:44:55;98.90;;;48.40;;
76867;SDS011;66168;45.478;11.060;2023-02-19T12:50:17;88.10;;;46.50;;
76867;SDS011;66168;45.478;11.060;2023-02-19T12:52:49;92.60;;;46.80;;
76867;SDS011;66168;45.478;11.060;2023-02-19T12:55:23;82.10;;;42.20;;
76867;SDS011;66168;45.478;11.060;2023-02-19T12:57:54;85.20;;;44.30;;
76867;SDS011;66168;45.478;11.060;2023-02-19T13:00:41;86.80;;;42.90;;
76867;SDS011;66168;45.478;11.060;2023-02-19T13:11:42;85.80;;;42.90;;
76867;SDS011;66168;45.478;11.060;2023-02-19T13:14:35;90.90;;;44.00;;
76867;SDS011;66168;45.478;11.060;2023-02-19T13:19:49;96.90;;;45.60;;
76867;SDS011;66168;45.478;11.060;2023-02-19T13:22:33;85.50;;;43.70;;
76867;SDS011;66168;45.478;11.060;2023-02-19T13:25:27;60.00;;;28.90;;
76867;SDS011;66168;45.478;11.060;2023-02-19T13:28:10;83.50;;;41.90;;
76867;SDS011;66168;45.478;11.060;2023-02-19T13:30:52;84.40;;;42.30;;
76867;SDS011;66168;45.478;11.060;2023-02-19T13:33:47;85.00;;;43.10;;
76867;SDS011;66168;45.478;11.060;2023-02-19T13:36:37;77.50;;;40.20;;
76867;SDS011;66168;45.478;11.060;2023-02-19T13:39:04;77.70;;;38.50;;
76867;SDS011;66168;45.478;11.060;2023-02-19T13:41:34;80.50;;;40.70;;
76867;SDS011;66168;45.478;11.060;2023-02-19T13:44:07;85.00;;;41.10;;
76867;SDS011;66168;45.478;11.060;2023-02-19T13:46:44;82.40;;;42.50;;
76867;SDS011;66168;45.478;11.060;2023-02-19T14:00:21;76.10;;;38.70;;
76867;SDS011;66168;45.478;11.060;2023-02-19T14:03:39;80.80;;;40.40;;
76867;SDS011;66168;45.478;11.060;2023-02-19T14:06:20;81.10;;;39.70;;
76867;SDS011;66168;45.478;11.060;2023-02-19T14:17:02;80.20;;;42.50;;
76867;SDS011;66168;45.478;11.060;2023-02-19T14:30:25;69.50;;;36.60;;
76867;SDS011;66168;45.478;11.060;2023-02-19T14:32:53;76.50;;;39.90;;
76867;SDS011;66168;45.478;11.060;2023-02-19T14:35:40;78.50;;;37.30;;
76867;SDS011;66168;45.478;11.060;2023-02-19T14:38:14;61.60;;;31.40;;
76867;SDS011;66168;45.478;11.060;2023-02-19T14:41:04;83.90;;;41.20;;
76867;SDS011;66168;45.478;11.060;2023-02-19T14:43:32;79.80;;;42.30;;
76867;SDS011;66168;45.478;11.060;2023-02-19T14:46:19;73.90;;;37.40;;
76867;SDS011;66168;45.478;11.060;2023-02-19T14:48:56;84.20;;;42.30;;
76867;SDS011;66168;45.478;11.060;2023-02-19T14:51:34;87.60;;;44.10;;
76867;SDS011;66168;45.478;11.060;2023-02-19T14:54:48;98.90;;;44.80;;
76867;SDS011;66168;45.478;11.060;2023-02-19T14:57:05;98.40;;;48.10;;
76867;SDS011;66168;45.478;11.060;2023-02-19T14:59:38;80.70;;;39.30;;
76867;SDS011;66168;45.478;11.060;2023-02-19T15:02:14;85.70;;;42.60;;
76867;SDS011;66168;45.478;11.060;2023-02-19T15:04:46;82.30;;;42.60;;
76867;SDS011;66168;45.478;11.060;2023-02-19T15:07:16;77.00;;;34.80;;
76867;SDS011;66168;45.478;11.060;2023-02-19T15:09:52;83.90;;;40.10;;
76867;SDS011;66168;45.478;11.060;2023-02-19T15:12:23;83.60;;;40.50;;
76867;SDS011;66168;45.478;11.060;2023-02-19T15:14:54;76.90;;;35.90;;
76867;SDS011;66168;45.478;11.060;2023-02-19T15:17:25;97.20;;;44.90;;
76867;SDS011;66168;45.478;11.060;2023-02-19T15:19:55;99.00;;;47.80;;
76867;SDS011;66168;45.478;11.060;2023-02-19T15:22:24;95.20;;;46.60;;
76867;SDS011;66168;45.478;11.060;2023-02-19T15:24:54;77.20;;;39.90;;
76867;SDS011;66168;45.478;11.060;2023-02-19T15:27:22;84.00;;;41.60;;
76867;SDS011;66168;45.478;11.060;2023-02-19T15:29:50;93.20;;;43.80;;
76867;SDS011;66168;45.478;11.060;2023-02-19T15:32:20;89.50;;;42.10;;
76867;SDS011;66168;45.478;11.060;2023-02-19T15:34:56;92.90;;;44.30;;
76867;SDS011;66168;45.478;11.060;2023-02-19T15:37:24;81.30;;;39.00;;
76867;SDS011;66168;45.478;11.060;2023-02-19T15:39:54;82.30;;;40.10;;
76867;SDS011;66168;45.478;11.060;2023-02-19T15:42:26;79.40;;;38.10;;
76867;SDS011;66168;45.478;11.060;2023-02-19T15:45:00;78.20;;;36.80;;
76867;SDS011;66168;45.478;11.060;2023-02-19T15:50:37;80.40;;;38.80;;
76867;SDS011;66168;45.478;11.060;2023-02-19T15:53:13;88.20;;;41.20;;
76867;SDS011;66168;45.478;11.060;2023-02-19T15:55:44;96.80;;;46.40;;
76867;SDS011;66168;45.478;11.060;2023-02-19T16:00:54;94.90;;;44.20;;
76867;SDS011;66168;45.478;11.060;2023-02-19T16:03:24;90.30;;;40.80;;
76867;SDS011;66168;45.478;11.060;2023-02-19T16:06:02;96.00;;;43.00;;
76867;SDS011;66168;45.478;11.060;2023-02-19T16:08:32;82.10;;;38.40;;
76867;SDS011;66168;45.478;11.060;2023-02-19T16:13:51;87.70;;;41.40;;
76867;SDS011;66168;45.478;11.060;2023-02-19T16:19:07;86.60;;;41.30;;
76867;SDS011;66168;45.478;11.060;2023-02-19T16:21:35;85.70;;;42.20;;
76867;SDS011;66168;45.478;11.060;2023-02-19T16:24:04;81.30;;;41.70;;
76867;SDS011;66168;45.478;11.060;2023-02-19T16:26:39;83.10;;;43.10;;
76867;SDS011;66168;45.478;11.060;2023-02-19T16:29:18;95.10;;;45.50;;
76867;SDS011;66168;45.478;11.060;2023-02-19T16:31:48;97.00;;;43.10;;
76867;SDS011;66168;45.478;11.060;2023-02-19T16:34:22;100.20;;;47.20;;
76867;SDS011;66168;45.478;11.060;2023-02-19T16:36:56;99.80;;;45.00;;
76867;SDS011;66168;45.478;11.060;2023-02-19T16:39:23;105.30;;;47.30;;
76867;SDS011;66168;45.478;11.060;2023-02-19T16:46:46;94.80;;;44.30;;
76867;SDS011;66168;45.478;11.060;2023-02-19T16:49:14;95.20;;;45.50;;
76867;SDS011;66168;45.478;11.060;2023-02-19T16:51:42;90.80;;;46.00;;
76867;SDS011;66168;45.478;11.060;2023-02-19T16:54:10;95.30;;;43.40;;
76867;SDS011;66168;45.478;11.060;2023-02-19T16:56:37;93.10;;;44.10;;
76867;SDS011;66168;45.478;11.060;2023-02-19T16:59:05;91.80;;;43.50;;
76867;SDS011;66168;45.478;11.060;2023-02-19T17:01:35;91.20;;;43.40;;
76867;SDS011;66168;45.478;11.060;2023-02-19T17:04:03;94.60;;;44.40;;
76867;SDS011;66168;45.478;11.060;2023-02-19T17:06:33;93.80;;;47.80;;
76867;SDS011;66168;45.478;11.060;2023-02-19T17:09:03;99.90;;;49.00;;
76867;SDS011;66168;45.478;11.060;2023-02-19T17:11:30;104.70;;;48.90;;